Omskiy-141 — UGZK — position and weather

sailwx.info

Track history (hours):
 
Tides and Currents Weather Stations Pressure Air Temp Water Temp Dewpoint Dewpoint Depression Visibility Wind Speed Wind Dir Waves Ship Positions

Omskiy-141

Last reported at 2014-Nov-22 12:09 UTC. Time now 2014-Nov-24 08:01 UTC.
Position N 60°01' E 026°29'.

Length 108 m; draft 3.4 m.

Type: Cargo ship. MMSI: 273310600.

Date/timePositionNaut miles runAvg speedWind from/ knotsBaromVisibWave heightAir tempDewpointWater temp
2014-Nov-22 12:09N 60°01' E 026°29'5 8.3
2014-Nov-22 11:33N 60°01' E 026°39'  
2014-Nov-17 23:19N 59°59' E 026°41'41 8.7
2014-Nov-17 18:31N 59°49' E 025°21'20 8.4
2014-Nov-17 16:09N 59°44' E 024°42'5 8.3
2014-Nov-17 15:32N 59°43' E 024°32'  
2014-Nov-12 16:31N 55°14' E 018°54'7 6.9
2014-Nov-12 15:32N 55°12' E 018°43'8 7.5
2014-Nov-12 14:31N 55°09' E 018°31'7 7.5
2014-Nov-12 13:33N 55°06' E 018°19'8 7.3
2014-Nov-12 12:25N 55°03' E 018°05'  
Track history (hours):
 
Tides and Currents Weather Stations Pressure Air Temp Water Temp Dewpoint Dewpoint Depression Visibility Wind Speed Wind Dir Waves Ship Positions

Omskiy-141

Last reported at 2014-Nov-22 12:09 UTC. Time now 2014-Nov-24 08:01 UTC.
Position N 60°01' E 026°29'.

Length 108 m; draft 3.4 m.

Type: Cargo ship. MMSI: 273310600.

Date/timePositionNaut miles runAvg speedWind from/ knotsBaromVisibWave heightAir tempDewpointWater temp
2014-Nov-22 12:09N 60°01' E 026°29'5 8.3
2014-Nov-22 11:33N 60°01' E 026°39'  
2014-Nov-17 23:19N 59°59' E 026°41'41 8.7
2014-Nov-17 18:31N 59°49' E 025°21'20 8.4
2014-Nov-17 16:09N 59°44' E 024°42'5 8.3
2014-Nov-17 15:32N 59°43' E 024°32'  
2014-Nov-12 16:31N 55°14' E 018°54'7 6.9
2014-Nov-12 15:32N 55°12' E 018°43'8 7.5
2014-Nov-12 14:31N 55°09' E 018°31'7 7.5
2014-Nov-12 13:33N 55°06' E 018°19'8 7.3
2014-Nov-12 12:25N 55°03' E 018°05'  

Dump ship's entire track history